createdAt,value
2019-01-11T00:00:54.562Z,3.20
2019-01-11T00:03:36.005Z,3.20
2019-01-11T00:06:17.334Z,3.20
2019-01-11T00:08:58.625Z,3.20
2019-01-11T00:11:39.966Z,3.20
2019-01-11T00:14:21.352Z,3.20
2019-01-11T00:17:01.845Z,3.30
2019-01-11T00:19:43.158Z,3.30
2019-01-11T00:25:07.493Z,3.30
2019-01-11T00:27:48.772Z,3.30
2019-01-11T00:33:24.281Z,3.20
2019-01-11T00:36:04.798Z,3.20
2019-01-11T00:38:46.182Z,3.20
2019-01-11T00:41:27.408Z,3.10
2019-01-11T00:47:02.803Z,3.10
2019-01-11T00:49:43.347Z,3.10
2019-01-11T00:52:23.853Z,3.10
2019-01-11T00:55:06.007Z,3.10
2019-01-11T00:57:47.470Z,3.10
2019-01-11T01:00:28.520Z,3.10
2019-01-11T01:03:09.874Z,3.20
2019-01-11T01:05:50.390Z,3.20
2019-01-11T01:08:31.474Z,3.10
2019-01-11T01:11:12.338Z,3.10
2019-01-11T01:13:52.836Z,3.10
2019-01-11T01:16:34.140Z,3.10
2019-01-11T01:19:19.969Z,3.10
2019-01-11T01:21:57.482Z,3.10
2019-01-11T01:24:38.854Z,3.10
2019-01-11T01:27:19.890Z,3.10
2019-01-11T01:30:01.164Z,3.00
2019-01-11T01:32:40.305Z,3.00
2019-01-11T01:35:21.121Z,3.00
2019-01-11T01:38:02.247Z,3.00
2019-01-11T01:40:42.818Z,3.00
2019-01-11T01:43:24.113Z,3.00
2019-01-11T01:46:05.515Z,3.00
2019-01-11T01:48:46.823Z,3.00
2019-01-11T01:51:28.132Z,3.00
2019-01-11T01:54:09.505Z,3.00
2019-01-11T01:56:50.018Z,3.00
2019-01-11T01:59:31.347Z,3.00
2019-01-11T02:02:00.131Z,3.00
2019-01-11T02:04:48.157Z,3.00
2019-01-11T02:07:36.213Z,3.00
2019-01-11T02:10:24.265Z,3.00
2019-01-11T02:13:12.397Z,3.00
2019-01-11T02:16:00.440Z,3.00
2019-01-11T02:18:48.501Z,3.00
2019-01-11T02:24:26.332Z,3.00
2019-01-11T02:33:08.346Z,3.00
2019-01-11T02:35:49.286Z,3.00
2019-01-11T02:38:32.335Z,3.00
2019-01-11T02:44:03.817Z,3.00
2019-01-11T02:46:45.116Z,3.00
2019-01-11T02:49:26.314Z,3.00
2019-01-11T02:52:07.722Z,3.00
2019-01-11T02:54:48.553Z,3.00
2019-01-11T02:57:29.652Z,3.00
2019-01-11T03:00:10.940Z,3.00
2019-01-11T03:02:52.086Z,3.00
2019-01-11T03:05:31.147Z,3.00
2019-01-11T03:08:19.191Z,3.00
2019-01-11T03:11:07.322Z,3.00
2019-01-11T03:13:55.374Z,3.00
2019-01-11T03:16:43.404Z,3.00
2019-01-11T03:19:31.525Z,3.00
2019-01-11T03:22:19.639Z,3.00
2019-01-11T03:25:08.866Z,3.00
2019-01-11T03:27:56.897Z,3.00
2019-01-11T03:30:44.962Z,3.00
2019-01-11T03:36:22.931Z,3.10
2019-01-11T03:39:03.453Z,3.10
2019-01-11T03:41:46.646Z,3.10
2019-01-11T03:44:27.865Z,3.10
2019-01-11T03:47:06.931Z,3.10
2019-01-11T03:49:55.247Z,3.10
2019-01-11T03:53:04.606Z,3.20
2019-01-11T03:55:52.712Z,3.20
2019-01-11T03:58:40.805Z,3.20
2019-01-11T04:01:28.861Z,3.20
2019-01-11T04:04:16.903Z,3.20
2019-01-11T04:07:24.901Z,3.20
2019-01-11T04:10:13.345Z,3.20
2019-01-11T04:12:54.738Z,3.20
2019-01-11T04:15:35.877Z,3.20
2019-01-11T04:18:17.243Z,3.30
2019-01-11T04:20:58.160Z,3.30
2019-01-11T04:23:39.565Z,3.30
2019-01-11T04:26:20.054Z,3.30
2019-01-11T04:29:01.366Z,3.30
2019-01-11T04:31:42.663Z,3.30
2019-01-11T04:34:23.972Z,3.40
2019-01-11T04:37:05.410Z,3.40
2019-01-11T04:39:46.495Z,3.40
2019-01-11T04:42:27.688Z,3.50
2019-01-11T04:50:56.430Z,3.50
2019-01-11T04:56:31.991Z,3.60
2019-01-11T04:59:14.347Z,3.60
2019-01-11T05:04:49.646Z,3.60
2019-01-11T05:13:00.702Z,3.60
2019-01-11T05:15:48.823Z,3.70
2019-01-11T05:18:36.911Z,3.70
2019-01-11T05:24:21.699Z,3.80
2019-01-11T05:27:09.800Z,3.80
2019-01-11T05:29:57.855Z,3.80
2019-01-11T05:32:45.877Z,3.80
2019-01-11T05:35:27.165Z,3.70
2019-01-11T05:40:58.990Z,3.70
2019-01-11T05:43:40.072Z,3.70
2019-01-11T05:46:21.261Z,3.80
2019-01-11T05:49:02.584Z,3.80
2019-01-11T05:51:43.177Z,3.80
2019-01-11T05:54:24.520Z,3.80
2019-01-11T05:57:05.750Z,3.80
2019-01-11T05:59:46.969Z,3.80
2019-01-11T06:02:28.158Z,3.80
2019-01-11T06:05:09.383Z,3.80
2019-01-11T06:07:49.961Z,3.80
2019-01-11T06:10:31.298Z,3.80
2019-01-11T06:13:12.326Z,3.80
2019-01-11T06:18:36.401Z,3.80
2019-01-11T06:26:55.471Z,3.80
2019-01-11T06:29:36.039Z,3.90
2019-01-11T06:32:17.177Z,3.90
2019-01-11T06:34:58.111Z,3.90
2019-01-11T06:37:38.659Z,3.90
2019-01-11T06:40:20.043Z,3.90
2019-01-11T06:43:03.463Z,4.00
2019-01-11T06:45:48.988Z,3.90
2019-01-11T06:48:37.052Z,3.90
2019-01-11T06:51:25.153Z,4.00
2019-01-11T06:54:13.209Z,4.00
2019-01-11T06:57:01.315Z,4.00
2019-01-11T06:59:49.374Z,4.00
2019-01-11T07:02:37.499Z,4.00
2019-01-11T07:05:18.718Z,4.10
2019-01-11T07:08:00.272Z,4.10
2019-01-11T07:10:29.154Z,4.10
2019-01-11T07:12:57.874Z,4.10
2019-01-11T07:15:27.016Z,4.10
2019-01-11T07:17:56.483Z,4.10
2019-01-11T07:20:26.013Z,4.10
2019-01-11T07:22:55.406Z,4.10
2019-01-11T07:25:24.196Z,4.20
2019-01-11T07:27:52.970Z,4.20
2019-01-11T07:30:22.153Z,4.20
2019-01-11T07:32:50.954Z,4.20
2019-01-11T07:35:19.765Z,4.20
2019-01-11T07:37:48.533Z,4.20
2019-01-11T07:40:17.322Z,4.20
2019-01-11T07:42:46.047Z,4.20
2019-01-11T07:45:14.777Z,4.20
2019-01-11T07:47:43.506Z,4.20
2019-01-11T07:50:12.424Z,4.30
2019-01-11T07:52:41.316Z,4.30
2019-01-11T07:55:11.021Z,4.30
2019-01-11T07:57:39.795Z,4.30
2019-01-11T08:00:10.507Z,4.30
2019-01-11T08:02:39.246Z,4.30
2019-01-11T08:05:08.265Z,4.30
2019-01-11T08:07:37.042Z,4.30
2019-01-11T08:10:08.906Z,4.40
2019-01-11T08:12:37.753Z,4.40
2019-01-11T08:15:09.544Z,4.40
2019-01-11T08:17:38.422Z,4.50
2019-01-11T08:20:08.190Z,4.50
2019-01-11T08:22:36.991Z,4.50
2019-01-11T08:25:06.256Z,4.60
2019-01-11T08:27:35.091Z,4.60
2019-01-11T08:30:07.013Z,4.60
2019-01-11T08:32:35.737Z,4.60
2019-01-11T08:35:06.739Z,4.70
2019-01-11T08:37:35.526Z,4.70
2019-01-11T08:40:07.066Z,4.70
2019-01-11T08:42:35.803Z,4.80
2019-01-11T08:45:07.956Z,4.90
2019-01-11T08:47:36.818Z,4.90
2019-01-11T08:50:08.590Z,5.00
2019-01-11T08:52:37.620Z,5.00
2019-01-11T08:55:06.462Z,5.10
2019-01-11T08:57:35.441Z,5.00
2019-01-11T09:00:07.275Z,5.10
2019-01-11T09:02:36.094Z,5.10
2019-01-11T09:05:06.814Z,5.10
2019-01-11T09:07:35.696Z,5.10
2019-01-11T09:10:10.383Z,5.10
2019-01-11T09:12:39.118Z,5.10
2019-01-11T09:15:08.642Z,5.10
2019-01-11T09:17:37.604Z,5.10
2019-01-11T09:20:06.846Z,5.10
2019-01-11T09:22:35.794Z,5.10
2019-01-11T09:25:05.648Z,5.20
2019-01-11T09:27:34.673Z,5.20
2019-01-11T09:30:06.329Z,5.20
2019-01-11T09:32:35.915Z,5.20
2019-01-11T09:35:04.766Z,5.20
2019-01-11T09:37:33.694Z,5.20
2019-01-11T09:40:04.082Z,5.20
2019-01-11T09:42:32.877Z,5.30
2019-01-11T09:45:01.592Z,5.30
2019-01-11T09:47:30.376Z,5.30
2019-01-11T09:49:59.089Z,5.30
2019-01-11T09:52:27.865Z,5.30
2019-01-11T09:54:56.635Z,5.40
2019-01-11T09:57:25.329Z,5.40
2019-01-11T09:59:54.120Z,5.50
2019-01-11T10:02:22.915Z,5.50
2019-01-11T10:04:51.799Z,5.70
2019-01-11T10:07:20.532Z,5.80
2019-01-11T10:09:49.263Z,5.90
2019-01-11T10:12:17.970Z,6.00
2019-01-11T10:14:46.713Z,6.10
2019-01-11T10:17:15.531Z,6.10
2019-01-11T10:19:44.514Z,6.20
2019-01-11T10:22:13.470Z,6.30
2019-01-11T10:24:42.411Z,6.30
2019-01-11T10:27:11.207Z,6.40
2019-01-11T10:29:40.048Z,6.40
2019-01-11T10:32:09.009Z,6.40
2019-01-11T10:34:37.962Z,6.40
2019-01-11T10:37:06.829Z,6.40
2019-01-11T10:39:38.693Z,6.40
2019-01-11T10:42:10.156Z,6.40
2019-01-11T10:44:38.361Z,6.30
2019-01-11T10:47:07.122Z,6.30
2019-01-11T10:49:35.874Z,6.30
2019-01-11T10:52:04.743Z,6.30
2019-01-11T10:54:33.434Z,6.30
2019-01-11T10:57:02.255Z,6.40
2019-01-11T10:59:30.985Z,6.40
2019-01-11T11:01:59.944Z,6.40
2019-01-11T11:04:32.559Z,6.50
2019-01-11T11:07:01.447Z,6.60
2019-01-11T11:09:30.316Z,6.70
2019-01-11T11:11:59.390Z,6.80
2019-01-11T11:14:28.448Z,6.80
2019-01-11T11:16:57.180Z,6.90
2019-01-11T11:19:26.098Z,6.90
2019-01-11T11:21:54.874Z,6.90
2019-01-11T11:24:23.726Z,6.90
2019-01-11T11:26:52.521Z,6.90
2019-01-11T11:29:21.276Z,6.90
2019-01-11T11:31:50.002Z,6.90
2019-01-11T11:34:24.037Z,6.90
2019-01-11T11:36:52.765Z,6.90
2019-01-11T11:39:21.589Z,6.90
2019-01-11T11:41:50.330Z,6.90
2019-01-11T11:44:19.255Z,7.00
2019-01-11T11:46:48.030Z,6.90
2019-01-11T11:49:16.796Z,7.00
2019-01-11T11:51:45.515Z,7.00
2019-01-11T11:54:14.286Z,7.00
2019-01-11T11:56:43.029Z,7.10
2019-01-11T11:59:11.793Z,7.20
2019-01-11T12:01:40.749Z,7.40
2019-01-11T12:04:09.553Z,7.40
2019-01-11T12:06:38.326Z,7.40
2019-01-11T12:09:08.109Z,7.40
2019-01-11T12:11:36.889Z,7.50
2019-01-11T12:14:05.729Z,7.40
2019-01-11T12:16:34.510Z,7.40
2019-01-11T12:19:03.369Z,7.40
2019-01-11T12:21:32.411Z,7.40
2019-01-11T12:24:01.267Z,7.50
2019-01-11T12:26:29.992Z,7.50
2019-01-11T12:28:59.710Z,7.50
2019-01-11T12:31:28.438Z,7.50
2019-01-11T12:33:57.173Z,7.50
2019-01-11T12:36:25.886Z,7.50
2019-01-11T12:38:54.607Z,7.50
2019-01-11T12:41:23.389Z,7.50
2019-01-11T12:43:52.093Z,7.50
2019-01-11T12:46:20.858Z,7.50
2019-01-11T12:48:49.635Z,7.50
2019-01-11T12:51:18.481Z,7.50
2019-01-11T12:53:47.267Z,7.50
2019-01-11T12:56:15.962Z,7.50
2019-01-11T12:58:44.759Z,7.60
2019-01-11T13:01:13.616Z,7.60
2019-01-11T13:03:42.365Z,7.60
2019-01-11T13:06:11.077Z,7.70
2019-01-11T13:08:39.860Z,7.70
2019-01-11T13:11:08.594Z,7.70
2019-01-11T13:13:37.293Z,7.80
2019-01-11T13:16:06.098Z,7.90
2019-01-11T13:18:34.972Z,7.90
2019-01-11T13:21:03.846Z,7.90
2019-01-11T13:23:32.926Z,8.00
2019-01-11T13:26:01.766Z,8.00
2019-01-11T13:28:30.460Z,8.00
2019-01-11T13:30:59.311Z,7.90
2019-01-11T13:33:28.039Z,7.90
2019-01-11T13:35:56.864Z,7.90
2019-01-11T13:38:25.565Z,8.00
2019-01-11T13:40:54.371Z,8.00
2019-01-11T13:43:23.299Z,8.00
2019-01-11T13:45:52.204Z,7.90
2019-01-11T13:48:20.989Z,7.90
2019-01-11T13:50:49.869Z,7.90
2019-01-11T13:53:18.759Z,7.90
2019-01-11T13:58:16.138Z,8.10
2019-01-11T14:00:44.935Z,8.10
2019-01-11T14:03:13.695Z,8.20
2019-01-11T14:05:42.526Z,8.20
2019-01-11T14:08:11.314Z,8.20
2019-01-11T14:10:40.080Z,8.20
2019-01-11T14:13:09.124Z,8.20
2019-01-11T14:15:38.330Z,8.30
2019-01-11T14:18:07.170Z,8.20
2019-01-11T14:20:35.881Z,8.20
2019-01-11T14:23:04.961Z,8.20
2019-01-11T14:25:33.716Z,8.20
2019-01-11T14:28:03.341Z,8.20
2019-01-11T14:30:32.109Z,8.20
2019-01-11T14:33:00.834Z,8.20
2019-01-11T14:35:29.593Z,8.20
2019-01-11T14:37:58.323Z,8.20
2019-01-11T14:40:27.101Z,8.20
2019-01-11T14:42:55.889Z,8.20
2019-01-11T14:45:25.001Z,8.20
2019-01-11T14:47:53.925Z,8.20
2019-01-11T14:50:22.682Z,8.20
2019-01-11T14:52:51.426Z,8.20
2019-01-11T14:55:20.214Z,8.20
2019-01-11T14:57:49.050Z,8.20
2019-01-11T15:00:20.121Z,8.20
2019-01-11T15:02:49.154Z,8.20
2019-01-11T15:05:19.020Z,8.20
2019-01-11T15:07:47.813Z,8.20
2019-01-11T15:10:16.822Z,8.20
2019-01-11T15:12:47.565Z,8.20
2019-01-11T15:15:16.681Z,8.20
2019-01-11T15:17:45.455Z,8.20
2019-01-11T15:20:16.819Z,8.20
2019-01-11T15:22:46.733Z,8.20
2019-01-11T15:25:15.594Z,8.20
2019-01-11T15:27:44.372Z,8.20
2019-01-11T15:30:15.647Z,8.20
2019-01-11T15:32:44.510Z,8.10
2019-01-11T15:35:13.380Z,8.10
2019-01-11T15:37:42.231Z,8.10
2019-01-11T15:40:17.305Z,8.10
2019-01-11T15:42:46.005Z,8.10
2019-01-11T15:45:14.781Z,8.00
2019-01-11T15:47:43.475Z,8.00
2019-01-11T15:50:18.074Z,8.00
2019-01-11T15:52:46.774Z,8.00
2019-01-11T15:55:15.518Z,7.90
2019-01-11T15:57:44.306Z,8.00
2019-01-11T16:00:18.889Z,8.00
2019-01-11T16:02:47.822Z,8.00
2019-01-11T16:05:16.645Z,7.90
2019-01-11T16:07:45.495Z,7.90
2019-01-11T16:10:17.014Z,7.90
2019-01-11T16:12:46.191Z,7.90
2019-01-11T16:15:33.266Z,7.90
2019-01-11T16:18:05.156Z,7.90
2019-01-11T16:20:33.848Z,7.90
2019-01-11T16:23:02.622Z,7.80
2019-01-11T16:25:31.380Z,7.90
2019-01-11T16:28:00.129Z,7.90
2019-01-11T16:30:28.897Z,7.90
2019-01-11T16:32:57.634Z,7.90
2019-01-11T16:35:26.422Z,7.90
2019-01-11T16:37:55.153Z,7.90
2019-01-11T16:40:23.834Z,7.80
2019-01-11T16:42:52.569Z,7.80
2019-01-11T16:45:21.336Z,7.80
2019-01-11T16:47:50.134Z,7.70
2019-01-11T16:50:19.085Z,7.60
2019-01-11T16:52:47.879Z,7.60
2019-01-11T16:55:16.574Z,7.60
2019-01-11T16:57:45.280Z,7.70
2019-01-11T17:00:18.417Z,7.70
2019-01-11T17:02:47.210Z,7.70
2019-01-11T17:05:16.063Z,7.70
2019-01-11T17:07:44.768Z,7.80
2019-01-11T17:10:13.719Z,7.80
2019-01-11T17:12:42.473Z,7.80
2019-01-11T17:15:14.639Z,7.80
2019-01-11T17:17:43.622Z,7.80
2019-01-11T17:20:14.936Z,7.80
2019-01-11T17:22:44.468Z,7.80
2019-01-11T17:25:14.089Z,7.80
2019-01-11T17:27:43.082Z,7.80
2019-01-11T17:30:14.481Z,7.70
2019-01-11T17:32:43.376Z,7.80
2019-01-11T17:35:12.358Z,7.80
2019-01-11T17:37:41.186Z,7.80
2019-01-11T17:40:11.667Z,7.80
2019-01-11T17:42:40.473Z,7.80
2019-01-11T17:45:12.072Z,7.80
2019-01-11T17:47:41.402Z,7.80
2019-01-11T17:50:14.076Z,7.80
2019-01-11T17:52:43.201Z,7.80
2019-01-11T17:55:12.415Z,7.80
2019-01-11T17:57:41.293Z,7.80
2019-01-11T18:00:12.757Z,7.80
2019-01-11T18:02:41.555Z,7.80
2019-01-11T18:05:12.529Z,7.80
2019-01-11T18:07:41.450Z,7.80
2019-01-11T18:10:11.312Z,7.80
2019-01-11T18:12:40.201Z,7.80
2019-01-11T18:15:14.742Z,7.70
2019-01-11T18:17:43.525Z,7.70
2019-01-11T18:20:18.344Z,7.70
2019-01-11T18:22:47.196Z,7.70
2019-01-11T18:25:15.969Z,7.70
2019-01-11T18:27:44.886Z,7.70
2019-01-11T18:30:15.723Z,7.70
2019-01-11T18:32:45.020Z,7.70
2019-01-11T18:35:14.413Z,7.70
2019-01-11T18:37:43.361Z,7.70
2019-01-11T18:40:23.185Z,7.70
2019-01-11T18:42:52.093Z,7.70
2019-01-11T18:45:20.869Z,7.60
2019-01-11T18:47:49.576Z,7.60
2019-01-11T18:50:20.338Z,7.60
2019-01-11T18:52:49.123Z,7.70
2019-01-11T18:55:17.977Z,7.70
2019-01-11T18:57:47.196Z,7.70
2019-01-11T19:00:18.065Z,7.70
2019-01-11T19:02:47.056Z,7.70
2019-01-11T19:05:16.076Z,7.70
2019-01-11T19:07:46.121Z,7.70
2019-01-11T19:10:17.361Z,7.70
2019-01-11T19:12:46.260Z,7.70
2019-01-11T19:15:20.580Z,7.70
2019-01-11T19:17:49.321Z,7.70
2019-01-11T19:20:23.150Z,7.70
2019-01-11T19:22:52.007Z,7.70
2019-01-11T19:25:20.872Z,7.70
2019-01-11T19:27:49.723Z,7.70
2019-01-11T19:30:23.585Z,7.70
2019-01-11T19:32:52.438Z,7.70
2019-01-11T19:35:21.328Z,7.70
2019-01-11T19:37:50.182Z,7.70
2019-01-11T19:40:19.074Z,7.70
2019-01-11T19:42:48.008Z,7.70
2019-01-11T19:45:18.341Z,7.70
2019-01-11T19:47:47.350Z,7.70
2019-01-11T19:50:21.152Z,7.70
2019-01-11T19:52:50.314Z,7.70
2019-01-11T19:55:19.536Z,7.70
2019-01-11T19:57:48.266Z,7.70
2019-01-11T20:00:22.546Z,7.70
2019-01-11T20:02:51.987Z,7.70
2019-01-11T20:05:21.295Z,7.70
2019-01-11T20:07:50.163Z,7.70
2019-01-11T20:10:22.216Z,7.70
2019-01-11T20:12:51.162Z,7.70
2019-01-11T20:15:20.028Z,7.70
2019-01-11T20:17:48.933Z,7.70
2019-01-11T20:20:17.811Z,7.70
2019-01-11T20:22:46.672Z,7.70
2019-01-11T20:25:21.049Z,7.70
2019-01-11T20:27:50.109Z,7.70
2019-01-11T20:30:20.949Z,7.60
2019-01-11T20:32:49.814Z,7.60
2019-01-11T20:35:18.649Z,7.60
2019-01-11T20:37:47.749Z,7.70
2019-01-11T20:40:16.993Z,7.70
2019-01-11T20:42:45.790Z,7.70
2019-01-11T20:45:16.625Z,7.70
2019-01-11T20:47:45.421Z,7.70
2019-01-11T20:50:17.271Z,7.60
2019-01-11T20:52:46.317Z,7.70
2019-01-11T20:55:15.249Z,7.70
2019-01-11T20:57:44.446Z,7.70
2019-01-11T21:00:19.310Z,7.70
2019-01-11T21:02:48.219Z,7.70
2019-01-11T21:05:17.558Z,7.70
2019-01-11T21:07:46.312Z,7.60
2019-01-11T21:10:15.310Z,7.70
2019-01-11T21:12:44.088Z,7.60
2019-01-11T21:15:18.261Z,7.60
2019-01-11T21:17:47.154Z,7.60
2019-01-11T21:20:17.805Z,7.60
2019-01-11T21:22:46.959Z,7.50
2019-01-11T21:25:17.636Z,7.60
2019-01-11T21:27:46.512Z,7.60
2019-01-11T21:30:32.244Z,7.50
2019-01-11T21:33:01.171Z,7.50
2019-01-11T21:35:30.003Z,7.50
2019-01-11T21:37:58.690Z,7.50
2019-01-11T21:40:27.437Z,7.50
2019-01-11T21:42:56.266Z,7.50
2019-01-11T21:45:25.219Z,7.50
2019-01-11T21:47:53.961Z,7.50
2019-01-11T21:50:23.587Z,7.50
2019-01-11T21:52:52.415Z,7.50
2019-01-11T21:55:21.310Z,7.50
2019-01-11T21:57:50.149Z,7.50
2019-01-11T22:00:24.876Z,7.50
2019-01-11T22:02:53.563Z,7.50
2019-01-11T22:05:22.437Z,7.50
2019-01-11T22:07:51.130Z,7.50
2019-01-11T22:10:20.043Z,7.50
2019-01-11T22:12:49.165Z,7.50
2019-01-11T22:15:18.777Z,7.50
2019-01-11T22:17:47.470Z,7.40
2019-01-11T22:20:17.260Z,7.40
2019-01-11T22:22:46.189Z,7.40
2019-01-11T22:25:16.273Z,7.40
2019-01-11T22:27:44.971Z,7.40
2019-01-11T22:30:15.925Z,7.40
2019-01-11T22:32:44.704Z,7.40
2019-01-11T22:35:13.489Z,7.50
2019-01-11T22:37:42.282Z,7.40
2019-01-11T22:40:22.086Z,7.40
2019-01-11T22:42:53.124Z,7.40
2019-01-11T22:45:21.931Z,7.40
2019-01-11T22:47:50.696Z,7.40
2019-01-11T22:50:19.487Z,7.40
2019-01-11T22:52:48.319Z,7.40
2019-01-11T22:55:18.213Z,7.40
2019-01-11T22:57:47.037Z,7.30
2019-01-11T23:00:21.847Z,7.30
2019-01-11T23:02:52.010Z,7.30
2019-01-11T23:05:20.806Z,7.30
2019-01-11T23:07:49.581Z,7.30
2019-01-11T23:10:24.239Z,7.40
2019-01-11T23:12:55.955Z,7.40
2019-01-11T23:15:24.790Z,7.40
2019-01-11T23:17:53.676Z,7.40
2019-01-11T23:20:22.371Z,7.40
2019-01-11T23:22:51.908Z,7.40
2019-01-11T23:25:20.742Z,7.40
2019-01-11T23:27:49.488Z,7.40
2019-01-11T23:30:18.331Z,7.40
2019-01-11T23:32:47.041Z,7.40
2019-01-11T23:35:15.748Z,7.40
2019-01-11T23:37:44.474Z,7.40
2019-01-11T23:40:14.205Z,7.40
2019-01-11T23:42:43.043Z,7.40
2019-01-11T23:45:12.285Z,7.40
2019-01-11T23:47:40.976Z,7.40
2019-01-11T23:50:12.954Z,7.40
2019-01-11T23:52:41.893Z,7.40
2019-01-11T23:55:11.254Z,7.40
2019-01-11T23:57:39.962Z,7.40
